Time;durP1;ratioP1;P1;durP2;ratioP2;P2;SDS_P1;SDS_P2;PMS_P1;PMS_P2;Temp;Humidity;BMP_temperature;BMP_pressure;BME280_temperature;BME280_humidity;BME280_pressure;Samples;Min_cycle;Max_cycle;Signal;HPM_P1;HPM_P2
2022/07/15 00:01:11;;;;;;;6.97;1.40;;;;;;;27.05;45.55;100631.00;4915946;29;20059;-62
2022/07/15 00:03:56;;;;;;;7.55;1.55;;;;;;;27.08;45.61;100633.72;4926644;29;20047;-60
2022/07/15 00:06:41;;;;;;;11.15;2.22;;;;;;;27.00;45.65;100628.72;4913220;29;20046;-61
2022/07/15 00:12:30;;;;;;;6.30;2.00;;;;;;;26.92;45.30;100614.09;4914728;29;20043;-62
2022/07/15 00:15:16;;;;;;;11.48;1.95;;;;;;;26.94;44.68;100611.66;4918810;29;20069;-61
2022/07/15 00:18:04;;;;;;;7.55;2.33;;;;;;;26.67;45.34;100608.19;4919369;29;20040;-60
2022/07/15 00:20:48;;;;;;;6.45;2.17;;;;;;;26.51;45.97;100611.69;4923086;29;20046;-61
2022/07/15 00:23:33;;;;;;;5.35;1.73;;;;;;;26.32;45.93;100609.63;4918695;29;20050;-61
2022/07/15 00:26:18;;;;;;;6.68;2.63;;;;;;;26.42;45.44;100603.06;4927998;29;20050;-62
2022/07/15 00:29:04;;;;;;;12.57;2.25;;;;;;;26.38;46.01;100603.13;4917919;29;20415;-61
2022/07/15 00:31:49;;;;;;;5.72;2.17;;;;;;;26.51;45.51;100606.13;4924307;29;20044;-61
2022/07/15 00:34:33;;;;;;;5.13;2.22;;;;;;;26.50;45.81;100593.38;4907971;29;20066;-60
2022/07/15 00:37:19;;;;;;;4.80;2.17;;;;;;;26.67;45.24;100591.44;4922656;29;20066;-60
2022/07/15 00:40:05;;;;;;;17.38;2.65;;;;;;;26.47;45.15;100588.63;4930432;29;20522;-60
2022/07/15 00:42:50;;;;;;;6.43;2.10;;;;;;;26.61;45.06;100593.19;4926725;29;20059;-61
2022/07/15 00:45:35;;;;;;;11.68;2.38;;;;;;;26.48;45.56;100581.06;4936615;29;20116;-60
2022/07/15 00:48:20;;;;;;;7.32;2.03;;;;;;;26.49;46.12;100586.22;4922298;29;20065;-61
2022/07/15 00:51:05;;;;;;;8.48;2.55;;;;;;;26.41;46.51;100584.00;4921910;29;20059;-61
2022/07/15 00:53:52;;;;;;;11.40;1.77;;;;;;;26.39;46.00;100582.41;4927889;29;20046;-61
2022/07/15 00:56:41;;;;;;;4.43;2.10;;;;;;;26.46;46.51;100575.94;4924080;29;20043;-61
2022/07/15 00:59:31;;;;;;;8.43;2.42;;;;;;;26.31;46.28;100571.81;4919635;29;20404;-61
2022/07/15 01:02:16;;;;;;;5.00;1.90;;;;;;;26.34;46.50;100568.97;4932123;29;20055;-60
2022/07/15 01:05:04;;;;;;;4.20;2.58;;;;;;;26.31;46.57;100569.78;4926778;29;20519;-62
2022/07/15 01:07:49;;;;;;;7.82;2.10;;;;;;;26.27;46.61;100557.94;4926360;29;20070;-61
2022/07/15 01:10:36;;;;;;;6.82;2.10;;;;;;;26.15;46.36;100561.31;4920190;29;20432;-62
2022/07/15 01:13:21;;;;;;;4.93;2.10;;;;;;;26.04;46.70;100571.06;4933102;29;20050;-61
2022/07/15 01:16:07;;;;;;;5.57;1.95;;;;;;;25.94;46.90;100556.09;4920858;29;20047;-61
2022/07/15 01:18:54;;;;;;;9.85;2.03;;;;;;;26.12;46.87;100561.34;4931124;29;20611;-61
2022/07/15 01:21:42;;;;;;;7.38;2.33;;;;;;;26.32;46.14;100553.84;4931773;29;20047;-61
2022/07/15 01:24:27;;;;;;;10.95;2.35;;;;;;;26.17;46.45;100553.31;4932759;29;20506;-61
2022/07/15 01:27:22;;;;;;;7.85;3.05;;;;;;;25.33;48.64;100558.22;4921724;29;20044;-60
2022/07/15 01:30:08;;;;;;;7.32;1.70;;;;;;;25.77;49.27;100551.59;4926995;29;20223;-60
2022/07/15 01:32:54;;;;;;;8.45;2.00;;;;;;;25.98;48.11;100540.09;4931893;29;20070;-61
2022/07/15 01:35:39;;;;;;;3.80;2.15;;;;;;;25.99;47.74;100550.03;4932669;29;20043;-63
2022/07/15 01:38:25;;;;;;;4.53;2.00;;;;;;;26.24;47.94;100546.84;4926874;29;20049;-62
2022/07/15 01:41:16;;;;;;;4.85;2.28;;;;;;;26.39;47.45;100548.94;4926703;29;20046;-61
2022/07/15 01:44:01;;;;;;;6.93;2.30;;;;;;;26.34;46.95;100546.66;4917506;29;20515;-61
2022/07/15 01:46:46;;;;;;;7.55;2.45;;;;;;;25.55;48.34;100543.56;4925085;29;20507;-61
2022/07/15 01:49:32;;;;;;;8.05;2.22;;;;;;;25.76;47.68;100534.09;4917371;29;20039;-60
2022/07/15 01:52:29;;;;;;;3.60;1.75;;;;;;;25.75;47.93;100540.09;4932908;29;20411;-61
2022/07/15 01:55:14;;;;;;;7.07;1.92;;;;;;;25.55;48.63;100523.28;4935091;29;20414;-61
2022/07/15 01:57:59;;;;;;;9.18;1.98;;;;;;;25.09;50.21;100518.41;4920958;29;20047;-61
2022/07/15 02:00:44;;;;;;;9.65;2.28;;;;;;;25.27;49.49;100521.72;4920385;29;20051;-62
2022/07/15 02:03:29;;;;;;;9.57;1.92;;;;;;;24.56;52.20;100521.81;4918335;29;20518;-61
2022/07/15 02:06:14;;;;;;;6.63;2.10;;;;;;;24.86;51.65;100521.06;4919262;29;20547;-62
2022/07/15 02:08:59;;;;;;;11.32;2.17;;;;;;;25.07;50.35;100515.25;4923905;29;20050;-62
2022/07/15 02:11:46;;;;;;;5.45;2.42;;;;;;;25.09;50.12;100508.03;4919615;29;20051;-61
2022/07/15 02:14:32;;;;;;;18.83;3.50;;;;;;;24.99;49.90;100508.22;4916552;29;20051;-61
2022/07/15 02:17:21;;;;;;;11.77;2.88;;;;;;;25.00;49.87;100502.19;4925920;29;20066;-61
2022/07/15 02:20:08;;;;;;;8.05;2.30;;;;;;;25.13;49.52;100510.78;4919458;29;20090;-61
2022/07/15 02:22:52;;;;;;;15.70;2.70;;;;;;;25.47;49.35;100505.09;4934439;29;20046;-62
2022/07/15 02:25:39;;;;;;;15.45;2.03;;;;;;;25.66;48.83;100506.41;4917244;29;20040;-61
2022/07/15 02:28:25;;;;;;;13.10;2.72;;;;;;;25.55;48.25;100503.78;4921578;29;20051;-62
2022/07/15 02:31:12;;;;;;;13.52;2.22;;;;;;;25.75;48.35;100506.69;4926548;29;20058;-61
2022/07/15 02:33:57;;;;;;;6.82;2.40;;;;;;;25.93;48.32;100501.56;4920267;29;20044;-60
2022/07/15 02:36:45;;;;;;;8.55;2.15;;;;;;;26.04;47.43;100504.19;4921405;29;20051;-61
2022/07/15 02:39:31;;;;;;;11.38;2.42;;;;;;;25.90;47.11;100491.28;4912645;29;20039;-61
2022/07/15 02:42:16;;;;;;;13.10;2.80;;;;;;;25.72;47.34;100493.59;4926745;29;20432;-60
2022/07/15 02:45:02;;;;;;;9.35;2.47;;;;;;;25.60;46.98;100485.84;4934225;29;20051;-60
2022/07/15 02:47:48;;;;;;;6.18;2.08;;;;;;;25.52;47.53;100497.06;4925662;29;20055;-61
2022/07/15 02:50:37;;;;;;;9.13;2.20;;;;;;;25.56;47.76;100497.03;4921359;29;20051;-61
2022/07/15 02:53:28;;;;;;;5.68;2.50;;;;;;;25.60;47.10;100491.41;4931303;29;20059;-60
2022/07/15 02:56:16;;;;;;;6.60;2.40;;;;;;;25.67;46.78;100488.50;4923539;29;20051;-60
2022/07/15 02:59:01;;;;;;;8.35;2.45;;;;;;;25.49;47.40;100492.34;4923268;29;20412;-61
2022/07/15 03:01:46;;;;;;;5.03;2.33;;;;;;;25.29;47.06;100499.81;4927061;29;20396;-61
2022/07/15 03:04:33;;;;;;;5.03;2.22;;;;;;;25.27;47.31;100490.31;4929038;29;20059;-61
2022/07/15 03:07:18;;;;;;;8.60;2.35;;;;;;;25.37;47.56;100490.13;4917402;29;20067;-60
2022/07/15 03:10:04;;;;;;;6.15;2.58;;;;;;;25.31;47.11;100486.25;4926632;29;20055;-61
2022/07/15 03:12:49;;;;;;;4.20;2.20;;;;;;;25.30;47.58;100492.22;4920358;29;20047;-62
2022/07/15 03:15:36;;;;;;;5.82;2.40;;;;;;;25.29;47.91;100485.09;4917554;29;20416;-63
2022/07/15 03:18:20;;;;;;;10.23;2.38;;;;;;;25.32;47.72;100490.63;4932509;29;20051;-61
2022/07/15 03:21:09;;;;;;;4.43;2.05;;;;;;;25.45;47.57;100504.72;4912890;29;20063;-61
2022/07/15 03:23:55;;;;;;;8.13;2.20;;;;;;;25.62;47.69;100502.91;4931791;29;20046;-61
2022/07/15 03:26:41;;;;;;;15.05;2.72;;;;;;;25.45;48.37;100499.94;4909630;29;20055;-61
2022/07/15 03:29:32;;;;;;;10.60;2.60;;;;;;;24.81;50.83;100505.63;5117089;27;20793;-61
2022/07/15 03:32:19;;;;;;;7.97;2.40;;;;;;;24.47;52.21;100500.09;5120131;28;20038;-60
2022/07/15 03:35:05;;;;;;;6.10;2.42;;;;;;;24.20;53.40;100507.53;5113537;28;20549;-61
2022/07/15 03:37:54;;;;;;;13.05;2.72;;;;;;;24.73;51.97;100506.13;5129883;28;20101;-60
2022/07/15 03:40:39;;;;;;;7.18;3.15;;;;;;;24.50;51.38;100509.56;5117907;28;20413;-61
2022/07/15 03:43:26;;;;;;;6.78;2.33;;;;;;;24.71;51.63;100510.09;5122146;28;20046;-60
2022/07/15 03:46:15;;;;;;;13.63;3.15;;;;;;;24.15;52.41;100505.94;5112002;28;20043;-61
2022/07/15 03:49:04;;;;;;;7.78;2.33;;;;;;;24.46;51.98;100508.81;5120805;28;20425;-60
2022/07/15 03:51:51;;;;;;;10.55;3.60;;;;;;;24.74;51.64;100513.28;5127408;28;20034;-60
2022/07/15 03:54:36;;;;;;;12.18;2.53;;;;;;;24.94;51.41;100500.31;5126868;28;20062;-60
2022/07/15 03:57:24;;;;;;;11.40;2.70;;;;;;;24.82;51.78;100498.06;5129326;28;20062;-60
2022/07/15 04:00:11;;;;;;;6.80;2.38;;;;;;;24.64;52.57;100507.41;5120442;28;20050;-60
2022/07/15 04:03:02;;;;;;;15.32;2.55;;;;;;;24.21;53.70;100500.75;5118281;28;20602;-60
2022/07/15 04:05:47;;;;;;;15.52;2.97;;;;;;;24.64;52.78;100510.19;5113445;28;20513;-60
2022/07/15 04:08:32;;;;;;;10.13;1.98;;;;;;;25.09;51.77;100508.03;5115281;28;20043;-61
2022/07/15 04:11:18;;;;;;;10.38;2.47;;;;;;;25.30;51.14;100515.28;5120668;28;20047;-60
2022/07/15 04:14:04;;;;;;;6.22;3.08;;;;;;;24.59;51.61;100507.88;5119719;28;20039;-60
2022/07/15 04:16:49;;;;;;;6.28;2.90;;;;;;;23.87;54.17;100507.00;5121936;28;20441;-60
2022/07/15 04:19:44;;;;;;;16.88;3.75;;;;;;;23.43;55.84;100510.50;5122555;28;20040;-60
2022/07/15 04:22:38;;;;;;;7.68;3.97;;;;;;;22.65;58.99;100510.13;5126760;28;20128;-60
2022/07/15 04:25:23;;;;;;;6.22;4.10;;;;;;;22.55;59.85;100508.19;5125956;28;20046;-61
2022/07/15 04:28:08;;;;;;;8.70;3.40;;;;;;;22.59;59.77;100508.97;5124161;22;20063;-77
2022/07/15 04:30:53;;;;;;;6.47;3.50;;;;;;;23.03;58.68;100511.94;5057853;28;20413;-81
2022/07/15 04:33:40;;;;;;;11.45;4.30;;;;;;;23.58;56.99;100507.66;5070761;28;20523;-79
2022/07/15 04:36:25;;;;;;;11.98;4.10;;;;;;;23.89;55.97;100509.38;5074515;28;20052;-79
2022/07/15 04:39:09;;;;;;;;;;;;;;;24.23;55.00;100512.25;5053215;28;20516;-79
2022/07/15 04:41:54;;;;;;;8.82;4.00;;;;;;;24.19;55.13;100500.38;5046087;28;19913;-79
2022/07/15 04:44:40;;;;;;;6.88;4.60;;;;;;;23.94;55.90;100502.59;5049587;28;20040;-79
2022/07/15 04:47:27;;;;;;;10.88;3.67;;;;;;;24.48;54.47;100506.44;5039511;28;20047;-78
2022/07/15 04:53:20;;;;;;;14.48;3.13;;;;;;;25.08;52.53;100514.03;5050439;28;20055;-78
2022/07/15 04:56:07;;;;;;;8.88;3.75;;;;;;;25.29;51.94;100505.38;5055661;28;20052;-80
2022/07/15 04:58:54;;;;;;;13.88;4.30;;;;;;;25.12;51.67;100509.19;5044558;28;20509;-79
2022/07/15 05:01:39;;;;;;;14.02;4.57;;;;;;;24.33;54.56;100505.03;5052596;28;20047;-81
2022/07/15 05:04:24;;;;;;;11.00;5.05;;;;;;;24.10;56.03;100497.28;5045240;28;20419;-80
2022/07/15 05:07:10;;;;;;;10.13;4.10;;;;;;;24.06;57.71;100505.66;5047288;28;20048;-80
2022/07/15 05:09:56;;;;;;;9.77;4.18;;;;;;;24.06;58.39;100508.44;5043649;28;20514;-80
2022/07/15 05:12:42;;;;;;;7.50;4.38;;;;;;;24.70;55.90;100502.97;5056028;28;20049;-79
2022/07/15 05:15:27;;;;;;;6.25;5.10;;;;;;;24.76;55.87;100508.06;5048634;28;20048;-79
2022/07/15 05:18:12;;;;;;;19.55;6.00;;;;;;;24.41;56.49;100507.28;5058963;28;20039;-78
2022/07/15 05:20:57;;;;;;;14.52;5.78;;;;;;;24.34;57.45;100517.69;5040037;28;20052;-78
2022/07/15 05:23:45;;;;;;;23.42;5.97;;;;;;;24.53;57.00;100515.09;5052508;28;20044;-79
2022/07/15 05:26:30;;;;;;;14.35;5.85;;;;;;;24.63;56.25;100519.75;5033930;28;20060;-79
2022/07/15 05:29:15;;;;;;;19.75;6.30;;;;;;;25.06;54.60;100519.22;5040335;28;20052;-78
2022/07/15 05:32:00;;;;;;;9.52;6.13;;;;;;;24.69;55.34;100520.06;5033044;28;20636;-78
2022/07/15 05:34:46;;;;;;;26.30;6.45;;;;;;;24.88;55.58;100519.47;5057586;28;20043;-79
2022/07/15 05:37:39;;;;;;;19.00;6.90;;;;;;;25.00;54.29;100537.59;5044358;28;20485;-78
2022/07/15 05:40:24;;;;;;;17.10;6.85;;;;;;;24.97;54.16;100532.88;5041603;28;20040;-77
2022/07/15 05:43:11;;;;;;;25.95;7.47;;;;;;;25.45;52.86;100535.34;5043100;28;20048;-77
2022/07/15 05:45:58;;;;;;;27.23;7.78;;;;;;;25.72;52.26;100535.38;5051992;28;20055;-78
2022/07/15 05:48:46;;;;;;;20.77;7.15;;;;;;;25.95;50.29;100532.59;5048431;28;20508;-77
2022/07/15 05:51:33;;;;;;;15.45;8.60;;;;;;;25.18;52.87;100537.34;5053856;28;20055;-78
2022/07/15 05:54:18;;;;;;;22.92;7.10;;;;;;;25.59;51.24;100534.41;5042237;28;20044;-78
2022/07/15 05:57:03;;;;;;;24.15;6.30;;;;;;;25.95;49.63;100544.53;5048670;28;20040;-77
2022/07/15 05:59:49;;;;;;;23.02;7.07;;;;;;;26.09;49.28;100551.06;5041066;28;20044;-79
2022/07/15 06:02:35;;;;;;;18.10;6.38;;;;;;;26.21;47.29;100556.81;5046005;28;20048;-77
2022/07/15 06:05:23;;;;;;;20.58;7.78;;;;;;;25.91;47.53;100556.94;5045458;28;20410;-77
2022/07/15 06:08:12;;;;;;;28.60;7.80;;;;;;;25.92;48.05;100561.31;5044332;28;20049;-79
2022/07/15 06:11:01;;;;;;;31.98;6.45;;;;;;;26.43;46.89;100553.66;5052271;28;20048;-76
2022/07/15 06:13:47;;;;;;;12.93;5.70;;;;;;;26.10;46.27;100561.81;5037436;28;20044;-76
2022/07/15 06:16:32;;;;;;;13.65;5.57;;;;;;;26.14;46.04;100556.94;5044326;28;20067;-76
2022/07/15 06:19:18;;;;;;;14.10;5.47;;;;;;;26.41;44.96;100553.31;5044124;28;20035;-77
2022/07/15 06:22:03;;;;;;;8.60;4.72;;;;;;;26.69;44.02;100569.50;5036953;28;20536;-76
2022/07/15 06:24:48;;;;;;;11.73;4.50;;;;;;;26.53;44.77;100561.03;5040258;28;20048;-76
2022/07/15 06:27:37;;;;;;;10.05;3.72;;;;;;;27.04;43.61;100560.41;5051704;28;20068;-76
2022/07/15 06:30:23;;;;;;;16.15;3.75;;;;;;;27.10;43.58;100569.88;5028530;28;20052;-77
2022/07/15 06:33:08;;;;;;;15.20;3.35;;;;;;;27.33;42.22;100571.00;5040089;28;20130;-76
2022/07/15 06:35:54;;;;;;;8.50;3.20;;;;;;;26.88;43.01;100567.94;5039490;28;20147;-77
2022/07/15 06:38:39;;;;;;;14.82;3.08;;;;;;;26.69;42.98;100567.50;5036082;28;20048;-77
2022/07/15 06:41:23;;;;;;;;;;;;;;;26.92;43.08;100575.03;5041665;28;20052;-77
2022/07/15 06:44:09;;;;;;;11.52;2.33;;;;;;;26.76;43.88;100566.56;5051263;28;19916;-77
2022/07/15 06:47:00;;;;;;;13.50;2.30;;;;;;;26.88;43.43;100574.31;5047762;28;20040;-78
2022/07/15 06:49:48;;;;;;;9.55;2.70;;;;;;;27.13;43.14;100577.38;5053067;28;20043;-78
2022/07/15 06:52:33;;;;;;;21.42;3.53;;;;;;;27.43;42.29;100578.34;5050923;28;20048;-78
2022/07/15 06:55:18;;;;;;;15.32;2.40;;;;;;;27.21;43.64;100580.81;5037496;28;20048;-78
2022/07/15 06:58:03;;;;;;;15.40;1.95;;;;;;;27.47;43.12;100581.84;5047773;28;20044;-76
2022/07/15 07:00:52;;;;;;;9.00;2.17;;;;;;;27.47;42.07;100576.25;5051754;28;20040;-77
2022/07/15 07:03:38;;;;;;;5.20;2.35;;;;;;;27.65;42.30;100573.84;5039802;28;20048;-77
2022/07/15 07:06:23;;;;;;;8.48;2.80;;;;;;;28.09;41.74;100575.13;5041931;28;20048;-77
2022/07/15 07:09:08;;;;;;;7.80;2.17;;;;;;;28.27;41.61;100580.31;5036159;28;20061;-78
2022/07/15 07:11:53;;;;;;;9.45;2.75;;;;;;;28.24;42.00;100572.81;5051476;28;20060;-81
2022/07/15 07:14:38;;;;;;;6.60;2.30;;;;;;;28.04;42.63;100579.25;5029450;28;20059;-78
2022/07/15 07:17:23;;;;;;;13.32;3.05;;;;;;;27.72;43.78;100570.88;5047146;28;20048;-77
2022/07/15 07:20:08;;;;;;;4.38;2.63;;;;;;;27.55;44.72;100578.47;5036768;28;20040;-77
2022/07/15 07:22:52;;;;;;;4.82;2.97;;;;;;;27.65;43.50;100565.47;5046948;28;20052;-77
2022/07/15 07:25:37;;;;;;;5.40;2.30;;;;;;;27.72;43.73;100568.09;5045446;28;20108;-78
2022/07/15 07:28:22;;;;;;;5.85;2.70;;;;;;;27.99;44.55;100568.59;5036569;28;20052;-78
2022/07/15 07:31:08;;;;;;;7.85;2.75;;;;;;;28.01;43.34;100570.97;5057153;28;20052;-77
2022/07/15 07:33:56;;;;;;;12.02;2.50;;;;;;;28.21;43.02;100576.47;5051034;28;20052;-77
2022/07/15 07:36:41;;;;;;;8.55;2.40;;;;;;;28.22;42.85;100569.66;5055624;28;20103;-77
2022/07/15 07:39:26;;;;;;;9.50;2.60;;;;;;;28.65;41.74;100569.31;5036159;28;20048;-78
2022/07/15 07:42:11;;;;;;;4.93;2.00;;;;;;;28.70;41.73;100577.91;5045358;28;20044;-78
2022/07/15 07:44:57;;;;;;;10.27;2.20;;;;;;;29.32;40.46;100572.97;5037779;28;20438;-79
2022/07/15 07:47:43;;;;;;;7.53;2.20;;;;;;;29.36;41.01;100570.06;5048290;28;20078;-79
2022/07/15 07:50:28;;;;;;;10.02;1.80;;;;;;;29.04;40.67;100568.22;5051993;28;20040;-79
2022/07/15 07:53:13;;;;;;;8.93;1.98;;;;;;;29.19;40.17;100570.13;5040551;28;20052;-78
2022/07/15 07:55:58;;;;;;;5.60;1.52;;;;;;;29.69;39.08;100563.00;5039898;28;20052;-78
2022/07/15 07:58:43;;;;;;;2.83;2.17;;;;;;;29.51;38.90;100557.19;5030635;28;20055;-77
2022/07/15 08:01:27;;;;;;;8.13;1.85;;;;;;;29.74;38.04;100562.44;5032327;28;20433;-78
2022/07/15 08:04:14;;;;;;;7.25;2.28;;;;;;;29.82;37.74;100552.53;5032328;28;20052;-78
2022/07/15 08:06:58;;;;;;;6.60;1.85;;;;;;;30.09;36.55;100558.47;5048435;28;20044;-78
2022/07/15 08:09:43;;;;;;;12.55;4.28;;;;;;;30.50;36.74;100553.84;5047486;28;20036;-78
2022/07/15 08:12:28;;;;;;;11.95;1.63;;;;;;;31.21;35.65;100546.38;5039184;28;20514;-79
2022/07/15 08:15:15;;;;;;;9.13;1.90;;;;;;;30.46;36.18;100544.75;5032782;28;20052;-78
2022/07/15 08:18:01;;;;;;;8.43;1.85;;;;;;;30.92;36.27;100543.88;5049677;28;20045;-78
2022/07/15 08:20:46;;;;;;;8.70;1.98;;;;;;;31.95;33.72;100547.44;5046055;28;20040;-78
2022/07/15 08:23:32;;;;;;;6.70;1.77;;;;;;;32.88;31.94;100542.94;5036898;28;20418;-79
2022/07/15 08:26:23;;;;;;;6.15;1.40;;;;;;;33.12;31.06;100542.25;5039203;28;20520;-78
2022/07/15 08:29:07;;;;;;;9.70;2.30;;;;;;;32.96;31.44;100549.03;5038500;28;20048;-77
2022/07/15 08:31:52;;;;;;;5.07;2.03;;;;;;;31.60;32.96;100524.38;5046453;28;20048;-77
2022/07/15 08:34:37;;;;;;;7.20;1.85;;;;;;;32.47;32.01;100543.59;5032332;28;20053;-77
2022/07/15 08:37:25;;;;;;;7.53;2.15;;;;;;;31.10;34.99;100540.41;5047092;28;20048;-79
2022/07/15 08:40:10;;;;;;;4.68;2.25;;;;;;;31.40;33.50;100550.84;5046577;28;20060;-78
2022/07/15 08:42:55;;;;;;;11.20;1.73;;;;;;;31.03;35.87;100540.69;5040797;28;20040;-81
2022/07/15 08:45:43;;;;;;;7.57;2.70;;;;;;;36.67;26.25;100561.34;5066302;28;20052;-81
2022/07/15 08:48:29;;;;;;;7.32;1.65;;;;;;;37.69;24.45;100551.88;5053201;28;20112;-82
2022/07/15 08:51:14;;;;;;;5.82;1.45;;;;;;;39.41;22.97;100556.53;5050556;28;20068;-79
2022/07/15 08:53:59;;;;;;;9.48;1.98;;;;;;;40.21;21.31;100559.44;5059381;28;20044;-80
2022/07/15 08:56:45;;;;;;;6.32;2.13;;;;;;;40.04;21.65;100559.47;5065936;28;20048;-79
2022/07/15 08:59:30;;;;;;;10.57;1.80;;;;;;;41.62;19.91;100555.06;5061895;28;20513;-82
2022/07/15 09:02:18;;;;;;;10.02;1.80;;;;;;;41.16;20.28;100556.78;5050074;28;20053;-80
2022/07/15 09:05:30;;;;;;;11.07;1.67;;;;;;;41.17;20.27;100546.91;5048664;28;20528;-80
2022/07/15 09:08:18;;;;;;;7.78;1.65;;;;;;;43.65;17.91;100551.06;5060382;28;20044;-81
2022/07/15 09:11:05;;;;;;;7.63;1.55;;;;;;;46.38;15.37;100565.19;5059044;28;20048;-81
2022/07/15 09:13:50;;;;;;;7.32;2.17;;;;;;;45.71;16.30;100551.22;5051108;28;20128;-80
2022/07/15 09:16:35;;;;;;;4.05;2.00;;;;;;;42.64;19.25;100551.19;5039742;28;20040;-78
2022/07/15 09:19:20;;;;;;;11.77;1.15;;;;;;;46.11;15.46;100558.16;5057015;28;20036;-79
2022/07/15 09:22:05;;;;;;;7.45;2.00;;;;;;;40.69;21.37;100546.75;5050118;28;20044;-77
2022/07/15 09:25:08;;;;;;;9.57;1.52;;;;;;;42.10;19.18;100542.84;5053392;28;20045;-81
2022/07/15 09:27:54;;;;;;;12.80;1.60;;;;;;;40.56;20.77;100533.84;5062112;28;20036;-80
2022/07/15 09:33:57;;;;;;;12.98;2.00;;;;;;;33.31;31.98;100530.47;5043104;28;20040;-81
2022/07/15 09:36:46;;;;;;;8.73;1.90;;;;;;;32.96;32.21;100521.63;5056464;28;20044;-80
2022/07/15 09:39:51;;;;;;;22.13;2.80;;;;;;;32.52;33.19;100523.25;5056532;28;20048;-80
2022/07/15 09:42:37;;;;;;;7.07;2.28;;;;;;;31.98;34.55;100507.91;5067879;28;20040;-81
2022/07/15 09:45:22;;;;;;;5.68;1.88;;;;;;;41.81;20.37;100536.63;5054088;28;20052;-81
2022/07/15 09:48:08;;;;;;;7.80;1.80;;;;;;;46.14;16.19;100551.28;5063355;28;20417;-83
2022/07/15 09:50:58;;;;;;;15.98;2.88;;;;;;;48.45;14.31;100555.88;5052176;28;20071;-81
2022/07/15 09:53:44;;;;;;;19.63;2.90;;;;;;;46.49;15.44;100546.03;5031771;28;20536;-81
2022/07/15 09:56:29;;;;;;;10.52;1.95;;;;;;;44.38;17.61;100543.84;5033845;28;20414;-82
2022/07/15 09:59:15;;;;;;;19.27;3.38;;;;;;;46.50;15.70;100547.56;5044230;28;20513;-84
2022/07/15 10:02:00;;;;;;;10.13;1.95;;;;;;;46.04;16.09;100541.63;5030281;28;20048;-84
2022/07/15 10:04:46;;;;;;;8.40;2.92;;;;;;;47.75;14.49;100539.38;5041596;28;20406;-88
2022/07/15 10:07:31;;;;;;;4.90;1.75;;;;;;;41.61;20.74;100534.28;5061349;28;20107;-83
2022/07/15 10:10:17;;;;;;;7.13;2.10;;;;;;;38.53;24.75;100511.72;5044087;28;20059;-78
2022/07/15 10:13:03;;;;;;;6.38;1.80;;;;;;;36.79;27.37;100520.47;5051690;28;20060;-78
2022/07/15 10:16:32;;;;;;;17.83;4.25;;;;;;;35.30;30.43;100501.09;5051101;28;20058;-78
2022/07/15 10:19:27;;;;;;;19.13;3.67;;;;;;;34.38;30.53;100503.31;5052976;28;20044;-77
2022/07/15 10:22:32;;;;;;;7.20;2.00;;;;;;;34.11;31.51;100497.88;5030799;28;20040;-77
2022/07/15 10:25:30;;;;;;;8.30;2.28;;;;;;;33.89;32.20;100495.34;5034813;28;20445;-77
2022/07/15 10:28:14;;;;;;;9.00;3.40;;;;;;;33.41;33.18;100488.91;5047646;28;20044;-77
2022/07/15 10:31:20;;;;;;;5.40;2.58;;;;;;;33.23;33.95;100494.63;5063493;22;20048;-60
2022/07/15 10:34:11;;;;;;;7.57;2.30;;;;;;;33.31;34.01;100499.44;5060028;28;20047;-61
2022/07/15 10:36:58;;;;;;;13.18;3.35;;;;;;;33.21;33.87;100495.13;5063009;28;20056;-61
2022/07/15 10:39:48;;;;;;;8.95;3.22;;;;;;;32.89;33.88;100488.16;5069395;28;20102;-61
2022/07/15 10:43:01;;;;;;;6.57;2.78;;;;;;;33.01;33.84;100492.81;5062832;28;20067;-61
2022/07/15 10:46:04;;;;;;;118.55;8.30;;;;;;;33.08;34.07;100486.81;5068217;28;20082;-61
2022/07/15 10:49:00;;;;;;;5.60;2.80;;;;;;;32.99;33.91;100480.44;5065884;28;20406;-62
2022/07/15 10:51:46;;;;;;;13.05;3.75;;;;;;;33.17;34.55;100477.56;5066556;28;20060;-61
2022/07/15 10:54:34;;;;;;;15.00;4.05;;;;;;;32.96;34.10;100481.41;5059434;28;20329;-60
2022/07/15 10:57:20;;;;;;;8.90;3.00;;;;;;;32.98;33.98;100482.47;5062531;28;20047;-60
2022/07/15 11:00:05;;;;;;;9.10;3.58;;;;;;;33.03;33.76;100479.00;5065647;28;20399;-62
2022/07/15 11:03:19;;;;;;;15.15;3.20;;;;;;;32.93;34.39;100471.84;5062337;28;20047;-60
2022/07/15 11:06:05;;;;;;;5.50;2.80;;;;;;;32.99;33.98;100466.34;5066571;28;20040;-60
2022/07/15 11:08:55;;;;;;;8.65;3.15;;;;;;;33.04;34.53;100462.88;5068985;28;20043;-59
2022/07/15 11:11:42;;;;;;;9.20;3.20;;;;;;;33.11;35.13;100462.56;5061857;28;20063;-62
2022/07/15 11:14:43;;;;;;;8.75;3.10;;;;;;;33.36;34.91;100455.72;5070500;28;20403;-60
2022/07/15 11:17:34;;;;;;;12.13;3.17;;;;;;;33.43;34.15;100461.00;5069684;28;20043;-62
2022/07/15 11:20:28;;;;;;;24.48;3.30;;;;;;;33.37;33.83;100460.88;5054635;28;20039;-60
2022/07/15 11:23:13;;;;;;;;;;;;;;;33.39;33.71;100451.94;5067648;28;20048;-61
2022/07/15 11:25:58;;;;;;;9.68;3.10;;;;;;;33.39;33.93;100449.13;5070681;28;19912;-60
2022/07/15 11:28:54;;;;;;;8.95;3.42;;;;;;;33.30;33.01;100440.72;5052737;28;20052;-60
2022/07/15 11:31:40;;;;;;;11.43;2.97;;;;;;;33.30;33.85;100443.53;5064146;28;20053;-62
2022/07/15 11:34:44;;;;;;;12.48;3.67;;;;;;;33.51;33.86;100448.91;5069922;28;20510;-62
2022/07/15 11:37:32;;;;;;;14.43;4.40;;;;;;;33.44;33.86;100445.63;5070423;28;20055;-60
2022/07/15 11:46:26;;;;;;;8.75;3.08;;;;;;;33.39;33.93;100444.25;5069723;28;20040;-60
2022/07/15 11:49:11;;;;;;;11.32;4.20;;;;;;;33.35;33.76;100448.53;5069925;28;20051;-61
2022/07/15 11:51:57;;;;;;;6.10;2.63;;;;;;;33.26;34.28;100440.91;5059355;28;20059;-61
2022/07/15 11:54:42;;;;;;;7.95;3.03;;;;;;;33.46;33.69;100443.91;5063284;28;20048;-62
2022/07/15 11:57:32;;;;;;;11.82;3.80;;;;;;;33.64;33.87;100442.22;5061080;28;20048;-61
2022/07/15 12:00:19;;;;;;;15.20;3.13;;;;;;;33.78;34.98;100441.53;5073864;28;20039;-61
2022/07/15 12:03:08;;;;;;;9.60;3.72;;;;;;;33.73;34.36;100434.50;5061097;28;20051;-61
2022/07/15 12:06:07;;;;;;;12.00;3.58;;;;;;;33.82;34.19;100436.47;5073253;28;20057;-61
2022/07/15 12:08:55;;;;;;;6.47;2.83;;;;;;;33.98;34.09;100432.44;5070827;28;20796;-61
2022/07/15 12:11:39;;;;;;;6.20;3.15;;;;;;;33.98;33.37;100432.44;5073784;28;20043;-62
2022/07/15 12:14:24;;;;;;;6.03;3.03;;;;;;;34.02;33.78;100418.91;5058282;28;20403;-60
2022/07/15 12:17:09;;;;;;;4.45;2.88;;;;;;;34.10;34.08;100429.34;5070983;28;20133;-59
2022/07/15 12:19:54;;;;;;;10.77;3.35;;;;;;;34.09;33.02;100421.34;5071863;28;20044;-61
2022/07/15 12:23:03;;;;;;;16.15;3.15;;;;;;;34.14;33.44;100415.03;5072707;28;20043;-59
2022/07/15 12:25:48;;;;;;;7.80;2.72;;;;;;;33.96;32.99;100409.56;5068721;28;20107;-62
2022/07/15 12:28:34;;;;;;;5.43;2.83;;;;;;;34.00;32.41;100408.09;5069103;28;20521;-62
2022/07/15 12:31:31;;;;;;;7.20;3.08;;;;;;;34.08;32.98;100405.69;5064781;28;20426;-62
2022/07/15 12:34:15;;;;;;;8.18;3.28;;;;;;;34.05;32.29;100401.78;5073687;28;20043;-60
2022/07/15 12:37:01;;;;;;;5.90;2.50;;;;;;;34.19;32.51;100397.44;5071026;28;20044;-61
2022/07/15 12:39:59;;;;;;;13.38;2.95;;;;;;;34.32;33.44;100395.91;5067280;28;20052;-61
2022/07/15 12:42:49;;;;;;;8.57;2.92;;;;;;;34.30;32.77;100389.16;5066926;28;20047;-61
2022/07/15 12:45:37;;;;;;;8.30;2.80;;;;;;;34.18;32.91;100399.50;5066845;28;20051;-61
2022/07/15 12:48:25;;;;;;;10.82;3.58;;;;;;;34.22;32.84;100385.19;5072850;28;20052;-61
2022/07/15 12:51:10;;;;;;;12.65;4.70;;;;;;;34.00;33.08;100388.34;5072922;28;20418;-61
2022/07/15 12:54:04;;;;;;;13.70;3.40;;;;;;;34.22;33.22;100385.97;5072371;28;20439;-61
2022/07/15 12:56:52;;;;;;;6.10;3.33;;;;;;;34.37;33.62;100385.97;5068378;28;20051;-61
2022/07/15 12:59:53;;;;;;;7.93;2.67;;;;;;;34.39;33.85;100389.06;5060302;28;20036;-61
2022/07/15 13:02:58;;;;;;;10.68;3.30;;;;;;;34.38;32.72;100390.34;5062232;28;20407;-61
2022/07/15 13:05:48;;;;;;;5.38;3.38;;;;;;;34.37;33.29;100380.31;5070559;28;20043;-62
2022/07/15 13:08:36;;;;;;;6.07;2.83;;;;;;;34.36;33.30;100384.41;5072781;28;20515;-62
2022/07/15 13:11:24;;;;;;;5.07;2.90;;;;;;;34.29;32.87;100387.59;5071807;28;20039;-61